sensor_id;sensor_type;location;lat;lon;timestamp;P1;durP1;ratioP1;P2;durP2;ratioP2
51304;SDS011;37392;50.964;6.952;2022-12-07T00:01:19;36.65;;;21.65;;
51304;SDS011;37392;50.964;6.952;2022-12-07T00:03:47;40.05;;;22.17;;
51304;SDS011;37392;50.964;6.952;2022-12-07T00:06:15;43.80;;;22.45;;
51304;SDS011;37392;50.964;6.952;2022-12-07T00:08:42;44.58;;;21.60;;
51304;SDS011;37392;50.964;6.952;2022-12-07T00:11:12;39.72;;;23.35;;
51304;SDS011;37392;50.964;6.952;2022-12-07T00:13:43;49.13;;;22.85;;
51304;SDS011;37392;50.964;6.952;2022-12-07T00:16:11;42.03;;;22.23;;
51304;SDS011;37392;50.964;6.952;2022-12-07T00:18:41;48.40;;;21.45;;
51304;SDS011;37392;50.964;6.952;2022-12-07T00:21:13;48.03;;;21.88;;
51304;SDS011;37392;50.964;6.952;2022-12-07T00:23:41;37.47;;;22.05;;
51304;SDS011;37392;50.964;6.952;2022-12-07T00:26:16;35.25;;;20.13;;
51304;SDS011;37392;50.964;6.952;2022-12-07T00:28:45;35.00;;;20.10;;
51304;SDS011;37392;50.964;6.952;2022-12-07T00:31:12;37.80;;;20.65;;
51304;SDS011;37392;50.964;6.952;2022-12-07T00:33:40;37.20;;;20.48;;
51304;SDS011;37392;50.964;6.952;2022-12-07T00:36:07;40.45;;;21.25;;
51304;SDS011;37392;50.964;6.952;2022-12-07T00:38:37;48.95;;;21.85;;
51304;SDS011;37392;50.964;6.952;2022-12-07T00:41:05;39.25;;;22.25;;
51304;SDS011;37392;50.964;6.952;2022-12-07T00:43:34;37.15;;;20.70;;
51304;SDS011;37392;50.964;6.952;2022-12-07T00:45:59;42.08;;;21.40;;
51304;SDS011;37392;50.964;6.952;2022-12-07T00:48:25;44.88;;;22.15;;
51304;SDS011;37392;50.964;6.952;2022-12-07T00:50:51;39.10;;;21.27;;
51304;SDS011;37392;50.964;6.952;2022-12-07T00:53:17;42.50;;;23.08;;
51304;SDS011;37392;50.964;6.952;2022-12-07T00:55:44;46.60;;;25.88;;
51304;SDS011;37392;50.964;6.952;2022-12-07T00:58:10;41.53;;;21.92;;
51304;SDS011;37392;50.964;6.952;2022-12-07T01:00:37;37.47;;;21.17;;
51304;SDS011;37392;50.964;6.952;2022-12-07T01:03:05;32.92;;;20.63;;
51304;SDS011;37392;50.964;6.952;2022-12-07T01:05:33;43.08;;;22.05;;
51304;SDS011;37392;50.964;6.952;2022-12-07T01:07:59;38.88;;;20.67;;
51304;SDS011;37392;50.964;6.952;2022-12-07T01:10:25;36.65;;;20.70;;
51304;SDS011;37392;50.964;6.952;2022-12-07T01:12:51;36.67;;;22.08;;
51304;SDS011;37392;50.964;6.952;2022-12-07T01:15:17;38.97;;;22.00;;
51304;SDS011;37392;50.964;6.952;2022-12-07T01:17:42;38.35;;;23.77;;
51304;SDS011;37392;50.964;6.952;2022-12-07T01:20:08;38.33;;;21.90;;
51304;SDS011;37392;50.964;6.952;2022-12-07T01:22:37;37.22;;;21.52;;
51304;SDS011;37392;50.964;6.952;2022-12-07T01:25:05;34.72;;;22.27;;
51304;SDS011;37392;50.964;6.952;2022-12-07T01:27:32;37.83;;;21.63;;
51304;SDS011;37392;50.964;6.952;2022-12-07T01:29:59;42.47;;;22.48;;
51304;SDS011;37392;50.964;6.952;2022-12-07T01:32:25;42.25;;;24.13;;
51304;SDS011;37392;50.964;6.952;2022-12-07T01:34:51;40.80;;;23.85;;
51304;SDS011;37392;50.964;6.952;2022-12-07T01:37:16;36.92;;;22.25;;
51304;SDS011;37392;50.964;6.952;2022-12-07T01:39:42;41.60;;;23.88;;
51304;SDS011;37392;50.964;6.952;2022-12-07T01:42:10;39.92;;;24.48;;
51304;SDS011;37392;50.964;6.952;2022-12-07T01:47:43;37.28;;;23.17;;
51304;SDS011;37392;50.964;6.952;2022-12-07T01:50:20;46.70;;;26.13;;
51304;SDS011;37392;50.964;6.952;2022-12-07T01:52:50;45.75;;;25.10;;
51304;SDS011;37392;50.964;6.952;2022-12-07T01:55:17;41.72;;;23.10;;
51304;SDS011;37392;50.964;6.952;2022-12-07T01:57:45;38.67;;;25.85;;
51304;SDS011;37392;50.964;6.952;2022-12-07T02:00:14;55.75;;;25.95;;
51304;SDS011;37392;50.964;6.952;2022-12-07T02:02:45;61.10;;;28.45;;
51304;SDS011;37392;50.964;6.952;2022-12-07T02:05:24;50.30;;;26.27;;
51304;SDS011;37392;50.964;6.952;2022-12-07T02:07:52;42.33;;;24.10;;
51304;SDS011;37392;50.964;6.952;2022-12-07T02:12:50;43.17;;;24.52;;
51304;SDS011;37392;50.964;6.952;2022-12-07T02:18:49;43.28;;;23.15;;
51304;SDS011;37392;50.964;6.952;2022-12-07T02:21:31;42.40;;;23.77;;
51304;SDS011;37392;50.964;6.952;2022-12-07T02:24:15;47.13;;;27.38;;
51304;SDS011;37392;50.964;6.952;2022-12-07T02:35:25;40.60;;;22.60;;
51304;SDS011;37392;50.964;6.952;2022-12-07T02:38:12;46.75;;;23.77;;
51304;SDS011;37392;50.964;6.952;2022-12-07T02:43:24;47.00;;;24.98;;
51304;SDS011;37392;50.964;6.952;2022-12-07T02:45:54;40.72;;;25.55;;
51304;SDS011;37392;50.964;6.952;2022-12-07T02:48:29;41.78;;;26.30;;
51304;SDS011;37392;50.964;6.952;2022-12-07T02:50:58;42.55;;;22.92;;
51304;SDS011;37392;50.964;6.952;2022-12-07T02:53:34;45.90;;;27.30;;
51304;SDS011;37392;50.964;6.952;2022-12-07T03:11:06;45.33;;;24.52;;
51304;SDS011;37392;50.964;6.952;2022-12-07T03:16:15;44.03;;;24.38;;
51304;SDS011;37392;50.964;6.952;2022-12-07T03:18:53;45.10;;;26.35;;
51304;SDS011;37392;50.964;6.952;2022-12-07T03:21:25;51.65;;;25.67;;
51304;SDS011;37392;50.964;6.952;2022-12-07T03:23:58;48.13;;;26.05;;
51304;SDS011;37392;50.964;6.952;2022-12-07T03:26:36;53.35;;;27.15;;
51304;SDS011;37392;50.964;6.952;2022-12-07T03:29:07;52.20;;;26.85;;
51304;SDS011;37392;50.964;6.952;2022-12-07T03:32:14;57.08;;;28.95;;
51304;SDS011;37392;50.964;6.952;2022-12-07T03:40:47;61.38;;;29.70;;
51304;SDS011;37392;50.964;6.952;2022-12-07T03:43:20;44.72;;;25.25;;
51304;SDS011;37392;50.964;6.952;2022-12-07T03:46:20;47.10;;;26.83;;
51304;SDS011;37392;50.964;6.952;2022-12-07T03:48:57;51.53;;;26.40;;
51304;SDS011;37392;50.964;6.952;2022-12-07T03:52:08;46.38;;;26.13;;
51304;SDS011;37392;50.964;6.952;2022-12-07T03:54:44;53.10;;;27.95;;
51304;SDS011;37392;50.964;6.952;2022-12-07T03:57:17;45.58;;;25.63;;
51304;SDS011;37392;50.964;6.952;2022-12-07T03:59:44;50.22;;;27.23;;
51304;SDS011;37392;50.964;6.952;2022-12-07T04:02:11;45.13;;;26.67;;
51304;SDS011;37392;50.964;6.952;2022-12-07T04:04:39;46.47;;;25.08;;
51304;SDS011;37392;50.964;6.952;2022-12-07T04:07:05;50.30;;;28.38;;
51304;SDS011;37392;50.964;6.952;2022-12-07T04:09:30;46.88;;;26.88;;
51304;SDS011;37392;50.964;6.952;2022-12-07T04:11:56;52.45;;;27.35;;
51304;SDS011;37392;50.964;6.952;2022-12-07T04:14:21;49.28;;;28.15;;
51304;SDS011;37392;50.964;6.952;2022-12-07T04:16:51;47.88;;;26.17;;
51304;SDS011;37392;50.964;6.952;2022-12-07T04:19:22;47.13;;;26.23;;
51304;SDS011;37392;50.964;6.952;2022-12-07T04:21:50;49.95;;;27.00;;
51304;SDS011;37392;50.964;6.952;2022-12-07T04:24:16;54.72;;;27.35;;
51304;SDS011;37392;50.964;6.952;2022-12-07T04:26:42;48.33;;;24.92;;
51304;SDS011;37392;50.964;6.952;2022-12-07T04:29:08;59.88;;;26.73;;
51304;SDS011;37392;50.964;6.952;2022-12-07T04:31:34;48.00;;;26.02;;
51304;SDS011;37392;50.964;6.952;2022-12-07T04:34:01;49.35;;;26.02;;
51304;SDS011;37392;50.964;6.952;2022-12-07T04:36:27;44.75;;;24.02;;
51304;SDS011;37392;50.964;6.952;2022-12-07T04:38:54;45.53;;;26.70;;
51304;SDS011;37392;50.964;6.952;2022-12-07T04:41:20;46.63;;;26.38;;
51304;SDS011;37392;50.964;6.952;2022-12-07T04:43:52;47.03;;;26.83;;
51304;SDS011;37392;50.964;6.952;2022-12-07T04:46:27;45.15;;;25.63;;
51304;SDS011;37392;50.964;6.952;2022-12-07T04:48:55;43.80;;;24.25;;
51304;SDS011;37392;50.964;6.952;2022-12-07T04:51:22;53.30;;;27.10;;
51304;SDS011;37392;50.964;6.952;2022-12-07T04:53:53;53.47;;;25.52;;
51304;SDS011;37392;50.964;6.952;2022-12-07T04:56:20;59.53;;;30.73;;
51304;SDS011;37392;50.964;6.952;2022-12-07T04:58:47;58.05;;;29.27;;
51304;SDS011;37392;50.964;6.952;2022-12-07T05:01:14;42.67;;;26.73;;
51304;SDS011;37392;50.964;6.952;2022-12-07T05:03:42;45.67;;;25.60;;
51304;SDS011;37392;50.964;6.952;2022-12-07T05:06:08;49.15;;;26.83;;
51304;SDS011;37392;50.964;6.952;2022-12-07T05:08:34;48.90;;;26.58;;
51304;SDS011;37392;50.964;6.952;2022-12-07T05:11:00;49.72;;;27.63;;
51304;SDS011;37392;50.964;6.952;2022-12-07T05:13:27;49.53;;;27.08;;
51304;SDS011;37392;50.964;6.952;2022-12-07T05:15:53;52.90;;;27.75;;
51304;SDS011;37392;50.964;6.952;2022-12-07T05:18:21;46.75;;;26.75;;
51304;SDS011;37392;50.964;6.952;2022-12-07T05:20:48;54.92;;;25.15;;
51304;SDS011;37392;50.964;6.952;2022-12-07T05:23:14;47.38;;;25.88;;
51304;SDS011;37392;50.964;6.952;2022-12-07T05:25:39;54.85;;;25.65;;
51304;SDS011;37392;50.964;6.952;2022-12-07T05:28:05;40.47;;;24.02;;
51304;SDS011;37392;50.964;6.952;2022-12-07T05:30:31;45.25;;;27.27;;
51304;SDS011;37392;50.964;6.952;2022-12-07T05:32:57;45.42;;;25.23;;
51304;SDS011;37392;50.964;6.952;2022-12-07T05:35:23;51.83;;;26.83;;
51304;SDS011;37392;50.964;6.952;2022-12-07T05:37:48;45.78;;;25.38;;
51304;SDS011;37392;50.964;6.952;2022-12-07T05:40:14;49.20;;;27.00;;
51304;SDS011;37392;50.964;6.952;2022-12-07T05:42:41;47.40;;;25.83;;
51304;SDS011;37392;50.964;6.952;2022-12-07T05:45:07;50.60;;;27.23;;
51304;SDS011;37392;50.964;6.952;2022-12-07T05:47:34;45.88;;;26.48;;
51304;SDS011;37392;50.964;6.952;2022-12-07T05:50:00;57.53;;;26.35;;
51304;SDS011;37392;50.964;6.952;2022-12-07T05:52:25;47.95;;;23.48;;
51304;SDS011;37392;50.964;6.952;2022-12-07T05:54:51;41.38;;;22.73;;
51304;SDS011;37392;50.964;6.952;2022-12-07T05:57:17;44.35;;;25.35;;
51304;SDS011;37392;50.964;6.952;2022-12-07T05:59:43;41.28;;;22.90;;
51304;SDS011;37392;50.964;6.952;2022-12-07T06:02:13;38.72;;;22.27;;
51304;SDS011;37392;50.964;6.952;2022-12-07T06:04:41;41.88;;;21.50;;
51304;SDS011;37392;50.964;6.952;2022-12-07T06:07:11;41.97;;;22.85;;
51304;SDS011;37392;50.964;6.952;2022-12-07T06:09:39;38.92;;;23.17;;
51304;SDS011;37392;50.964;6.952;2022-12-07T06:12:05;39.55;;;21.75;;
51304;SDS011;37392;50.964;6.952;2022-12-07T06:14:50;41.78;;;22.90;;
51304;SDS011;37392;50.964;6.952;2022-12-07T06:17:16;41.80;;;22.60;;
51304;SDS011;37392;50.964;6.952;2022-12-07T06:19:42;40.45;;;21.13;;
51304;SDS011;37392;50.964;6.952;2022-12-07T06:22:08;40.35;;;22.17;;
51304;SDS011;37392;50.964;6.952;2022-12-07T06:24:36;41.45;;;25.00;;
51304;SDS011;37392;50.964;6.952;2022-12-07T06:27:02;45.72;;;25.40;;
51304;SDS011;37392;50.964;6.952;2022-12-07T06:29:29;47.42;;;25.02;;
51304;SDS011;37392;50.964;6.952;2022-12-07T06:31:55;50.78;;;24.80;;
51304;SDS011;37392;50.964;6.952;2022-12-07T06:34:22;58.92;;;26.27;;
51304;SDS011;37392;50.964;6.952;2022-12-07T06:36:49;46.53;;;25.58;;
51304;SDS011;37392;50.964;6.952;2022-12-07T06:41:47;46.70;;;25.05;;
51304;SDS011;37392;50.964;6.952;2022-12-07T06:44:13;50.80;;;26.42;;
51304;SDS011;37392;50.964;6.952;2022-12-07T06:46:39;54.65;;;26.35;;
51304;SDS011;37392;50.964;6.952;2022-12-07T06:49:05;50.00;;;28.45;;
51304;SDS011;37392;50.964;6.952;2022-12-07T06:51:31;50.30;;;29.42;;
51304;SDS011;37392;50.964;6.952;2022-12-07T06:53:58;59.78;;;29.13;;
51304;SDS011;37392;50.964;6.952;2022-12-07T06:56:24;56.38;;;28.95;;
51304;SDS011;37392;50.964;6.952;2022-12-07T06:58:49;57.47;;;31.10;;
51304;SDS011;37392;50.964;6.952;2022-12-07T07:01:16;48.33;;;27.83;;
51304;SDS011;37392;50.964;6.952;2022-12-07T07:03:44;49.67;;;27.15;;
51304;SDS011;37392;50.964;6.952;2022-12-07T07:06:10;44.53;;;27.98;;
51304;SDS011;37392;50.964;6.952;2022-12-07T07:08:38;42.20;;;26.58;;
51304;SDS011;37392;50.964;6.952;2022-12-07T07:11:05;44.97;;;27.38;;
51304;SDS011;37392;50.964;6.952;2022-12-07T07:13:32;52.03;;;28.25;;
51304;SDS011;37392;50.964;6.952;2022-12-07T07:15:57;48.92;;;28.08;;
51304;SDS011;37392;50.964;6.952;2022-12-07T07:18:23;47.90;;;26.02;;
51304;SDS011;37392;50.964;6.952;2022-12-07T07:20:50;53.45;;;26.63;;
51304;SDS011;37392;50.964;6.952;2022-12-07T07:23:17;57.72;;;29.70;;
51304;SDS011;37392;50.964;6.952;2022-12-07T07:25:44;50.60;;;26.77;;
51304;SDS011;37392;50.964;6.952;2022-12-07T07:28:10;52.75;;;29.38;;
51304;SDS011;37392;50.964;6.952;2022-12-07T07:30:35;61.58;;;30.27;;
51304;SDS011;37392;50.964;6.952;2022-12-07T07:33:02;57.63;;;30.77;;
51304;SDS011;37392;50.964;6.952;2022-12-07T07:35:33;54.20;;;27.92;;
51304;SDS011;37392;50.964;6.952;2022-12-07T07:38:05;50.17;;;27.55;;
51304;SDS011;37392;50.964;6.952;2022-12-07T07:40:31;56.83;;;29.17;;
51304;SDS011;37392;50.964;6.952;2022-12-07T07:42:57;56.85;;;32.83;;
51304;SDS011;37392;50.964;6.952;2022-12-07T07:45:24;53.78;;;29.25;;
51304;SDS011;37392;50.964;6.952;2022-12-07T07:47:50;52.80;;;29.15;;
51304;SDS011;37392;50.964;6.952;2022-12-07T07:50:17;51.97;;;28.42;;
51304;SDS011;37392;50.964;6.952;2022-12-07T07:52:43;63.38;;;31.50;;
51304;SDS011;37392;50.964;6.952;2022-12-07T07:55:09;64.85;;;30.50;;
51304;SDS011;37392;50.964;6.952;2022-12-07T07:57:36;59.22;;;30.45;;
51304;SDS011;37392;50.964;6.952;2022-12-07T08:00:11;53.15;;;29.80;;
51304;SDS011;37392;50.964;6.952;2022-12-07T08:02:40;63.42;;;30.70;;
51304;SDS011;37392;50.964;6.952;2022-12-07T08:05:07;45.70;;;28.52;;
51304;SDS011;37392;50.964;6.952;2022-12-07T08:07:34;53.63;;;30.20;;
51304;SDS011;37392;50.964;6.952;2022-12-07T08:09:59;57.65;;;32.45;;
51304;SDS011;37392;50.964;6.952;2022-12-07T08:12:25;59.78;;;30.17;;
51304;SDS011;37392;50.964;6.952;2022-12-07T08:14:51;56.05;;;30.42;;
51304;SDS011;37392;50.964;6.952;2022-12-07T08:17:17;46.67;;;28.55;;
51304;SDS011;37392;50.964;6.952;2022-12-07T08:19:43;51.35;;;27.70;;
51304;SDS011;37392;50.964;6.952;2022-12-07T08:22:08;45.90;;;25.77;;
51304;SDS011;37392;50.964;6.952;2022-12-07T08:24:34;48.25;;;27.13;;
51304;SDS011;37392;50.964;6.952;2022-12-07T08:27:01;57.72;;;29.08;;
51304;SDS011;37392;50.964;6.952;2022-12-07T08:29:27;57.13;;;30.77;;
51304;SDS011;37392;50.964;6.952;2022-12-07T08:31:52;48.58;;;28.50;;
51304;SDS011;37392;50.964;6.952;2022-12-07T08:34:18;54.88;;;27.88;;
51304;SDS011;37392;50.964;6.952;2022-12-07T08:36:44;43.10;;;26.45;;
51304;SDS011;37392;50.964;6.952;2022-12-07T08:39:09;44.40;;;26.02;;
51304;SDS011;37392;50.964;6.952;2022-12-07T08:41:35;47.80;;;27.15;;
51304;SDS011;37392;50.964;6.952;2022-12-07T08:44:01;45.85;;;24.50;;
51304;SDS011;37392;50.964;6.952;2022-12-07T08:49:09;46.50;;;25.65;;
51304;SDS011;37392;50.964;6.952;2022-12-07T08:51:39;47.00;;;25.33;;
51304;SDS011;37392;50.964;6.952;2022-12-07T08:54:06;42.70;;;22.27;;
51304;SDS011;37392;50.964;6.952;2022-12-07T08:56:36;39.80;;;22.92;;
51304;SDS011;37392;50.964;6.952;2022-12-07T08:59:02;38.25;;;20.48;;
51304;SDS011;37392;50.964;6.952;2022-12-07T09:01:29;38.40;;;20.90;;
51304;SDS011;37392;50.964;6.952;2022-12-07T09:03:55;43.60;;;21.63;;
51304;SDS011;37392;50.964;6.952;2022-12-07T09:06:20;35.17;;;20.15;;
51304;SDS011;37392;50.964;6.952;2022-12-07T09:08:46;50.58;;;22.92;;
51304;SDS011;37392;50.964;6.952;2022-12-07T09:11:15;37.50;;;19.20;;
51304;SDS011;37392;50.964;6.952;2022-12-07T09:13:41;35.83;;;18.55;;
51304;SDS011;37392;50.964;6.952;2022-12-07T09:16:06;31.10;;;18.83;;
51304;SDS011;37392;50.964;6.952;2022-12-07T09:18:32;45.83;;;19.73;;
51304;SDS011;37392;50.964;6.952;2022-12-07T09:20:58;37.63;;;18.73;;
51304;SDS011;37392;50.964;6.952;2022-12-07T09:23:24;37.20;;;17.75;;
51304;SDS011;37392;50.964;6.952;2022-12-07T09:25:50;37.45;;;18.02;;
51304;SDS011;37392;50.964;6.952;2022-12-07T09:28:16;40.47;;;18.75;;
51304;SDS011;37392;50.964;6.952;2022-12-07T09:30:45;36.15;;;18.73;;
51304;SDS011;37392;50.964;6.952;2022-12-07T09:33:12;31.30;;;19.33;;
51304;SDS011;37392;50.964;6.952;2022-12-07T09:35:43;29.50;;;18.40;;
51304;SDS011;37392;50.964;6.952;2022-12-07T09:38:13;30.65;;;18.25;;
51304;SDS011;37392;50.964;6.952;2022-12-07T09:40:40;39.13;;;17.52;;
51304;SDS011;37392;50.964;6.952;2022-12-07T09:43:19;36.97;;;18.55;;
51304;SDS011;37392;50.964;6.952;2022-12-07T09:45:48;35.85;;;18.67;;
51304;SDS011;37392;50.964;6.952;2022-12-07T09:48:21;32.33;;;17.35;;
51304;SDS011;37392;50.964;6.952;2022-12-07T09:50:57;33.72;;;18.00;;
51304;SDS011;37392;50.964;6.952;2022-12-07T09:53:26;34.45;;;16.02;;
51304;SDS011;37392;50.964;6.952;2022-12-07T09:55:58;32.80;;;16.80;;
51304;SDS011;37392;50.964;6.952;2022-12-07T09:58:25;43.13;;;18.42;;
51304;SDS011;37392;50.964;6.952;2022-12-07T10:00:53;33.83;;;17.45;;
51304;SDS011;37392;50.964;6.952;2022-12-07T10:03:31;33.63;;;16.92;;
51304;SDS011;37392;50.964;6.952;2022-12-07T10:05:57;27.40;;;14.65;;
51304;SDS011;37392;50.964;6.952;2022-12-07T10:08:22;36.78;;;16.15;;
51304;SDS011;37392;50.964;6.952;2022-12-07T10:10:51;26.98;;;14.82;;
51304;SDS011;37392;50.964;6.952;2022-12-07T10:13:22;33.33;;;16.27;;
51304;SDS011;37392;50.964;6.952;2022-12-07T10:18:52;27.65;;;14.85;;
51304;SDS011;37392;50.964;6.952;2022-12-07T10:26:51;30.65;;;12.10;;
51304;SDS011;37392;50.964;6.952;2022-12-07T10:29:37;29.50;;;13.50;;
51304;SDS011;37392;50.964;6.952;2022-12-07T10:32:06;36.97;;;14.43;;
51304;SDS011;37392;50.964;6.952;2022-12-07T10:35:18;27.30;;;14.02;;
51304;SDS011;37392;50.964;6.952;2022-12-07T10:37:57;25.38;;;14.48;;
51304;SDS011;37392;50.964;6.952;2022-12-07T10:40:29;31.45;;;13.73;;
51304;SDS011;37392;50.964;6.952;2022-12-07T10:43:02;29.88;;;13.13;;
51304;SDS011;37392;50.964;6.952;2022-12-07T10:46:24;30.70;;;12.98;;
51304;SDS011;37392;50.964;6.952;2022-12-07T10:48:50;29.15;;;13.45;;
51304;SDS011;37392;50.964;6.952;2022-12-07T10:58:16;26.35;;;12.73;;
51304;SDS011;37392;50.964;6.952;2022-12-07T11:03:37;29.88;;;13.20;;
51304;SDS011;37392;50.964;6.952;2022-12-07T11:18:24;18.73;;;11.73;;
51304;SDS011;37392;50.964;6.952;2022-12-07T11:23:49;25.08;;;11.32;;
51304;SDS011;37392;50.964;6.952;2022-12-07T11:35:22;28.98;;;11.73;;
51304;SDS011;37392;50.964;6.952;2022-12-07T11:38:16;31.23;;;12.93;;
51304;SDS011;37392;50.964;6.952;2022-12-07T11:40:49;24.33;;;10.50;;
51304;SDS011;37392;50.964;6.952;2022-12-07T11:43:26;25.48;;;12.88;;
51304;SDS011;37392;50.964;6.952;2022-12-07T11:46:04;26.45;;;11.95;;
51304;SDS011;37392;50.964;6.952;2022-12-07T11:48:37;21.10;;;9.88;;
51304;SDS011;37392;50.964;6.952;2022-12-07T11:51:12;22.45;;;10.43;;
51304;SDS011;37392;50.964;6.952;2022-12-07T11:53:55;26.10;;;11.30;;
51304;SDS011;37392;50.964;6.952;2022-12-07T11:56:27;30.17;;;11.90;;
51304;SDS011;37392;50.964;6.952;2022-12-07T11:59:01;24.92;;;10.65;;
51304;SDS011;37392;50.964;6.952;2022-12-07T12:01:42;24.90;;;10.00;;
51304;SDS011;37392;50.964;6.952;2022-12-07T12:07:24;26.60;;;11.77;;
51304;SDS011;37392;50.964;6.952;2022-12-07T12:09:59;23.35;;;10.63;;
51304;SDS011;37392;50.964;6.952;2022-12-07T12:15:18;27.08;;;11.60;;
51304;SDS011;37392;50.964;6.952;2022-12-07T12:21:10;33.00;;;10.95;;
51304;SDS011;37392;50.964;6.952;2022-12-07T12:23:44;23.55;;;10.55;;
51304;SDS011;37392;50.964;6.952;2022-12-07T12:26:23;25.00;;;11.60;;
51304;SDS011;37392;50.964;6.952;2022-12-07T12:29:02;31.27;;;11.52;;
51304;SDS011;37392;50.964;6.952;2022-12-07T12:31:32;27.85;;;13.48;;
51304;SDS011;37392;50.964;6.952;2022-12-07T12:34:10;38.35;;;14.40;;
51304;SDS011;37392;50.964;6.952;2022-12-07T12:42:59;29.77;;;14.35;;
51304;SDS011;37392;50.964;6.952;2022-12-07T12:47:57;26.70;;;13.45;;
51304;SDS011;37392;50.964;6.952;2022-12-07T12:50:29;32.03;;;11.93;;
51304;SDS011;37392;50.964;6.952;2022-12-07T12:53:12;24.60;;;12.70;;
51304;SDS011;37392;50.964;6.952;2022-12-07T13:00:43;30.95;;;12.65;;
51304;SDS011;37392;50.964;6.952;2022-12-07T13:03:21;27.15;;;11.93;;
51304;SDS011;37392;50.964;6.952;2022-12-07T13:08:49;27.27;;;11.82;;
51304;SDS011;37392;50.964;6.952;2022-12-07T13:11:17;29.25;;;14.82;;
51304;SDS011;37392;50.964;6.952;2022-12-07T13:17:03;22.60;;;11.18;;
51304;SDS011;37392;50.964;6.952;2022-12-07T13:25:07;26.52;;;11.27;;
51304;SDS011;37392;50.964;6.952;2022-12-07T13:27:43;21.25;;;11.15;;
51304;SDS011;37392;50.964;6.952;2022-12-07T13:30:26;24.67;;;10.18;;
51304;SDS011;37392;50.964;6.952;2022-12-07T13:32:54;21.60;;;11.35;;
51304;SDS011;37392;50.964;6.952;2022-12-07T13:35:30;24.42;;;12.25;;
51304;SDS011;37392;50.964;6.952;2022-12-07T13:38:00;26.52;;;11.80;;
51304;SDS011;37392;50.964;6.952;2022-12-07T13:40:30;30.30;;;11.45;;
51304;SDS011;37392;50.964;6.952;2022-12-07T13:43:00;32.20;;;11.05;;
51304;SDS011;37392;50.964;6.952;2022-12-07T13:45:29;22.70;;;11.25;;
51304;SDS011;37392;50.964;6.952;2022-12-07T13:48:17;22.90;;;9.95;;
51304;SDS011;37392;50.964;6.952;2022-12-07T13:50:56;25.90;;;11.05;;
51304;SDS011;37392;50.964;6.952;2022-12-07T13:53:23;30.35;;;11.15;;
51304;SDS011;37392;50.964;6.952;2022-12-07T13:55:52;22.45;;;10.95;;
51304;SDS011;37392;50.964;6.952;2022-12-07T13:58:18;29.13;;;9.60;;
51304;SDS011;37392;50.964;6.952;2022-12-07T14:00:44;21.50;;;10.63;;
51304;SDS011;37392;50.964;6.952;2022-12-07T14:05:42;24.70;;;10.25;;
51304;SDS011;37392;50.964;6.952;2022-12-07T14:16:05;32.55;;;11.52;;
51304;SDS011;37392;50.964;6.952;2022-12-07T14:18:55;22.80;;;10.68;;
51304;SDS011;37392;50.964;6.952;2022-12-07T14:21:24;35.25;;;11.60;;
51304;SDS011;37392;50.964;6.952;2022-12-07T14:24:07;25.60;;;9.73;;
51304;SDS011;37392;50.964;6.952;2022-12-07T14:26:43;23.05;;;9.65;;
51304;SDS011;37392;50.964;6.952;2022-12-07T14:31:55;27.55;;;11.13;;
51304;SDS011;37392;50.964;6.952;2022-12-07T14:34:23;18.48;;;10.45;;
51304;SDS011;37392;50.964;6.952;2022-12-07T14:36:50;28.15;;;11.50;;
51304;SDS011;37392;50.964;6.952;2022-12-07T14:39:16;27.38;;;11.50;;
51304;SDS011;37392;50.964;6.952;2022-12-07T14:41:41;25.35;;;11.05;;
51304;SDS011;37392;50.964;6.952;2022-12-07T14:44:17;27.33;;;11.07;;
51304;SDS011;37392;50.964;6.952;2022-12-07T14:46:45;24.88;;;11.65;;
51304;SDS011;37392;50.964;6.952;2022-12-07T14:49:12;32.63;;;11.20;;
51304;SDS011;37392;50.964;6.952;2022-12-07T14:51:39;29.63;;;11.63;;
51304;SDS011;37392;50.964;6.952;2022-12-07T14:54:19;24.30;;;10.63;;
51304;SDS011;37392;50.964;6.952;2022-12-07T14:56:45;24.95;;;11.60;;
51304;SDS011;37392;50.964;6.952;2022-12-07T14:59:15;26.60;;;12.20;;
51304;SDS011;37392;50.964;6.952;2022-12-07T15:01:42;28.85;;;12.55;;
51304;SDS011;37392;50.964;6.952;2022-12-07T15:04:08;35.55;;;11.90;;
51304;SDS011;37392;50.964;6.952;2022-12-07T15:06:33;28.65;;;12.45;;
51304;SDS011;37392;50.964;6.952;2022-12-07T15:08:59;29.40;;;12.43;;
51304;SDS011;37392;50.964;6.952;2022-12-07T15:11:25;22.92;;;12.75;;
51304;SDS011;37392;50.964;6.952;2022-12-07T15:13:51;24.35;;;11.68;;
51304;SDS011;37392;50.964;6.952;2022-12-07T15:16:36;27.15;;;11.55;;
51304;SDS011;37392;50.964;6.952;2022-12-07T15:19:05;30.73;;;11.43;;
51304;SDS011;37392;50.964;6.952;2022-12-07T15:21:36;26.15;;;11.30;;
51304;SDS011;37392;50.964;6.952;2022-12-07T15:24:01;26.83;;;13.15;;
51304;SDS011;37392;50.964;6.952;2022-12-07T15:26:27;16.63;;;8.80;;
51304;SDS011;37392;50.964;6.952;2022-12-07T15:28:53;17.75;;;7.75;;
51304;SDS011;37392;50.964;6.952;2022-12-07T15:31:19;18.52;;;7.05;;
51304;SDS011;37392;50.964;6.952;2022-12-07T15:33:45;15.15;;;5.65;;
51304;SDS011;37392;50.964;6.952;2022-12-07T15:36:17;13.20;;;5.38;;
51304;SDS011;37392;50.964;6.952;2022-12-07T15:38:49;9.50;;;4.28;;
51304;SDS011;37392;50.964;6.952;2022-12-07T15:41:15;9.30;;;5.03;;
51304;SDS011;37392;50.964;6.952;2022-12-07T15:43:45;10.85;;;5.15;;
51304;SDS011;37392;50.964;6.952;2022-12-07T15:46:30;13.10;;;5.38;;
51304;SDS011;37392;50.964;6.952;2022-12-07T15:49:12;11.68;;;4.60;;
51304;SDS011;37392;50.964;6.952;2022-12-07T15:51:44;19.00;;;6.45;;
51304;SDS011;37392;50.964;6.952;2022-12-07T15:54:12;16.00;;;5.10;;
51304;SDS011;37392;50.964;6.952;2022-12-07T15:56:45;10.02;;;5.03;;
51304;SDS011;37392;50.964;6.952;2022-12-07T15:59:11;14.13;;;5.55;;
51304;SDS011;37392;50.964;6.952;2022-12-07T16:01:36;12.43;;;7.15;;
51304;SDS011;37392;50.964;6.952;2022-12-07T16:04:02;20.60;;;7.43;;
51304;SDS011;37392;50.964;6.952;2022-12-07T16:06:28;15.05;;;8.00;;
51304;SDS011;37392;50.964;6.952;2022-12-07T16:08:53;14.88;;;8.75;;
51304;SDS011;37392;50.964;6.952;2022-12-07T16:11:20;22.40;;;9.65;;
51304;SDS011;37392;50.964;6.952;2022-12-07T16:13:46;18.92;;;9.60;;
51304;SDS011;37392;50.964;6.952;2022-12-07T16:16:13;22.35;;;10.73;;
51304;SDS011;37392;50.964;6.952;2022-12-07T16:18:42;21.83;;;9.95;;
51304;SDS011;37392;50.964;6.952;2022-12-07T16:21:08;26.48;;;12.57;;
51304;SDS011;37392;50.964;6.952;2022-12-07T16:23:34;27.00;;;11.48;;
51304;SDS011;37392;50.964;6.952;2022-12-07T16:26:06;26.88;;;11.10;;
51304;SDS011;37392;50.964;6.952;2022-12-07T16:28:43;22.67;;;10.18;;
51304;SDS011;37392;50.964;6.952;2022-12-07T16:31:17;22.30;;;11.82;;
51304;SDS011;37392;50.964;6.952;2022-12-07T16:33:45;21.65;;;11.90;;
51304;SDS011;37392;50.964;6.952;2022-12-07T16:36:12;26.02;;;12.35;;
51304;SDS011;37392;50.964;6.952;2022-12-07T16:38:41;29.83;;;12.73;;
51304;SDS011;37392;50.964;6.952;2022-12-07T16:41:07;27.95;;;12.48;;
51304;SDS011;37392;50.964;6.952;2022-12-07T16:43:34;17.40;;;9.98;;
51304;SDS011;37392;50.964;6.952;2022-12-07T16:46:00;22.60;;;10.85;;
51304;SDS011;37392;50.964;6.952;2022-12-07T16:48:26;22.15;;;10.85;;
51304;SDS011;37392;50.964;6.952;2022-12-07T16:50:52;25.92;;;11.48;;
51304;SDS011;37392;50.964;6.952;2022-12-07T16:53:21;21.02;;;10.02;;
51304;SDS011;37392;50.964;6.952;2022-12-07T16:55:48;16.88;;;10.10;;
51304;SDS011;37392;50.964;6.952;2022-12-07T16:58:14;24.23;;;11.95;;